createdAt,value
2024-02-28T00:01:51.847Z,0.30
2024-02-28T00:04:22.140Z,0.40
2024-02-28T00:06:50.967Z,0.30
2024-02-28T00:09:19.828Z,0.30
2024-02-28T00:11:48.940Z,0.30
2024-02-28T00:14:17.223Z,0.30
2024-02-28T00:16:45.507Z,0.37
2024-02-28T00:19:15.751Z,0.40
2024-02-28T00:21:44.185Z,0.30
2024-02-28T00:24:12.612Z,0.30
2024-02-28T00:26:43.743Z,0.30
2024-02-28T00:29:12.217Z,0.40
2024-02-28T00:31:40.549Z,0.40
2024-02-28T00:34:09.891Z,0.30
2024-02-28T00:36:48.389Z,0.30
2024-02-28T00:39:23.983Z,0.30
2024-02-28T00:41:52.194Z,0.37
2024-02-28T00:44:20.479Z,0.40
2024-02-28T00:46:48.763Z,0.40
2024-02-28T00:49:17.055Z,0.40
2024-02-28T00:51:48.060Z,0.40
2024-02-28T00:54:16.456Z,0.40
2024-02-28T00:56:44.722Z,0.40
2024-02-28T00:59:14.185Z,0.40
2024-02-28T01:01:42.620Z,0.40
2024-02-28T01:04:11.040Z,0.40
2024-02-28T01:06:40.230Z,0.40
2024-02-28T01:09:09.909Z,0.50
2024-02-28T01:11:38.097Z,0.30
2024-02-28T01:14:06.471Z,0.40
2024-02-28T01:16:34.896Z,0.30
2024-02-28T01:19:04.109Z,0.30
2024-02-28T01:21:32.436Z,0.40
2024-02-28T01:24:00.584Z,0.30
2024-02-28T01:26:30.295Z,0.33
2024-02-28T01:28:58.800Z,0.30
2024-02-28T01:31:27.161Z,0.40
2024-02-28T01:33:55.513Z,0.40
2024-02-28T01:36:23.914Z,0.40
2024-02-28T01:38:52.208Z,0.40
2024-02-28T01:41:20.361Z,0.40
2024-02-28T01:43:50.116Z,0.30
2024-02-28T01:46:25.879Z,0.40
2024-02-28T01:48:54.916Z,0.37
2024-02-28T01:51:25.710Z,0.50
2024-02-28T01:53:56.180Z,0.50
2024-02-28T01:56:26.513Z,0.40
2024-02-28T01:58:57.652Z,0.40
2024-02-28T02:01:26.017Z,0.40
2024-02-28T02:03:55.792Z,0.37
2024-02-28T02:06:24.532Z,0.30
2024-02-28T02:08:52.894Z,0.40
2024-02-28T02:11:21.225Z,0.40
2024-02-28T02:13:50.944Z,0.40
2024-02-28T02:16:23.135Z,0.30
2024-02-28T02:18:51.610Z,0.40
2024-02-28T02:21:21.806Z,0.30
2024-02-28T02:23:51.600Z,0.30
2024-02-28T02:26:19.940Z,0.30
2024-02-28T02:28:48.219Z,0.40
2024-02-28T02:31:16.634Z,0.40
2024-02-28T02:33:45.132Z,0.40
2024-02-28T02:36:13.597Z,0.30
2024-02-28T02:38:41.927Z,0.40
2024-02-28T02:41:11.397Z,0.30
2024-02-28T02:43:39.695Z,0.30
2024-02-28T02:46:07.969Z,0.40
2024-02-28T02:48:36.266Z,0.37
2024-02-28T02:51:04.868Z,0.33
2024-02-28T02:53:33.219Z,0.30
2024-02-28T02:56:01.503Z,0.40
2024-02-28T02:58:31.152Z,0.40
2024-02-28T03:01:00.087Z,0.40
2024-02-28T03:03:28.402Z,0.40
2024-02-28T03:05:56.680Z,0.53
2024-02-28T03:08:23.940Z,0.40
2024-02-28T03:10:52.171Z,0.30
2024-02-28T03:13:20.671Z,0.30
2024-02-28T03:15:50.335Z,0.40
2024-02-28T03:18:18.798Z,0.30
2024-02-28T03:20:47.117Z,0.47
2024-02-28T03:23:15.493Z,0.40
2024-02-28T03:25:43.683Z,0.40
2024-02-28T03:28:11.947Z,0.40
2024-02-28T03:30:40.376Z,0.40
2024-02-28T03:33:10.626Z,0.30
2024-02-28T03:35:38.997Z,0.40
2024-02-28T03:38:08.340Z,0.30
2024-02-28T03:40:36.685Z,0.40
2024-02-28T03:43:05.376Z,0.30
2024-02-28T03:45:38.701Z,0.30
2024-02-28T03:48:09.446Z,0.30
2024-02-28T03:50:38.579Z,0.40
2024-02-28T03:53:07.302Z,0.47
2024-02-28T03:55:35.445Z,0.40
2024-02-28T03:58:04.108Z,0.40
2024-02-28T04:00:32.538Z,0.30
2024-02-28T04:03:00.937Z,0.40
2024-02-28T04:05:30.561Z,0.40
2024-02-28T04:07:59.070Z,0.30
2024-02-28T04:10:27.358Z,0.40
2024-02-28T04:12:55.778Z,0.37
2024-02-28T04:15:26.980Z,0.30
2024-02-28T04:17:55.306Z,0.30
2024-02-28T04:20:23.568Z,0.50
2024-02-28T04:22:53.198Z,0.30
2024-02-28T04:25:21.550Z,0.40
2024-02-28T04:27:50.852Z,0.40
2024-02-28T04:30:19.271Z,0.40
2024-02-28T04:32:47.581Z,0.33
2024-02-28T04:35:19.737Z,0.30
2024-02-28T04:37:48.494Z,0.40
2024-02-28T04:40:18.302Z,0.30
2024-02-28T04:42:46.692Z,0.40
2024-02-28T04:45:15.034Z,0.40
2024-02-28T04:47:44.776Z,0.40
2024-02-28T04:50:13.852Z,0.50
2024-02-28T04:52:42.260Z,0.40
2024-02-28T04:55:10.803Z,0.30
2024-02-28T04:57:40.572Z,0.30
2024-02-28T05:00:10.128Z,0.40
2024-02-28T05:02:38.476Z,0.40
2024-02-28T05:05:07.851Z,0.30
2024-02-28T05:07:36.205Z,0.30
2024-02-28T05:10:04.771Z,0.40
2024-02-28T05:12:33.212Z,0.40
2024-02-28T05:15:03.006Z,0.40
2024-02-28T05:17:31.331Z,0.40
2024-02-28T05:19:59.589Z,0.40
2024-02-28T05:22:27.862Z,0.30
2024-02-28T05:24:56.207Z,0.40
2024-02-28T05:27:24.659Z,0.40
2024-02-28T05:29:52.867Z,0.40
2024-02-28T05:32:22.857Z,0.30
2024-02-28T05:34:51.484Z,0.40
2024-02-28T05:37:20.445Z,0.40
2024-02-28T05:39:48.716Z,0.40
2024-02-28T05:42:22.762Z,0.40
2024-02-28T05:44:51.205Z,0.40
2024-02-28T05:47:22.158Z,0.40
2024-02-28T05:49:53.142Z,0.40
2024-02-28T05:52:21.314Z,0.40
2024-02-28T05:54:49.825Z,0.43
2024-02-28T05:57:18.329Z,0.40
2024-02-28T05:59:46.634Z,0.40
2024-02-28T06:02:15.189Z,0.40
2024-02-28T06:04:43.486Z,0.30
2024-02-28T06:07:13.138Z,0.30
2024-02-28T06:09:41.310Z,0.30
2024-02-28T06:12:09.612Z,0.30
2024-02-28T06:14:38.636Z,0.40
2024-02-28T06:17:07.239Z,0.40
2024-02-28T06:19:35.657Z,0.40
2024-02-28T06:22:04.086Z,0.40
2024-02-28T06:24:36.302Z,0.40
2024-02-28T06:27:05.420Z,0.40
2024-02-28T06:29:37.116Z,0.30
2024-02-28T06:32:05.803Z,0.40
2024-02-28T06:34:34.076Z,0.37
2024-02-28T06:37:02.516Z,0.30
2024-02-28T06:39:30.835Z,0.40
2024-02-28T06:42:00.418Z,0.37
2024-02-28T06:44:28.641Z,0.40
2024-02-28T06:46:56.865Z,0.40
2024-02-28T06:49:25.447Z,0.40
2024-02-28T06:51:54.329Z,0.40
2024-02-28T06:54:23.218Z,0.33
2024-02-28T06:56:51.420Z,0.30
2024-02-28T06:59:21.044Z,0.40
2024-02-28T07:01:49.490Z,0.37
2024-02-28T07:04:18.127Z,0.40
2024-02-28T07:06:46.463Z,0.30
2024-02-28T07:09:16.371Z,0.30
2024-02-28T07:11:44.540Z,0.40
2024-02-28T07:14:14.049Z,0.30
2024-02-28T07:16:44.759Z,0.40
2024-02-28T07:19:13.132Z,0.50
2024-02-28T07:21:41.396Z,0.40
2024-02-28T07:24:09.890Z,0.40
2024-02-28T07:26:38.423Z,0.40
2024-02-28T07:29:07.428Z,0.33
2024-02-28T07:31:36.944Z,0.40
2024-02-28T07:34:06.710Z,0.40
2024-02-28T07:36:35.317Z,0.30
2024-02-28T07:39:03.952Z,0.37
2024-02-28T07:41:33.222Z,0.40
2024-02-28T07:44:01.925Z,0.30
2024-02-28T07:46:30.813Z,0.30
2024-02-28T07:48:59.234Z,0.40
2024-02-28T07:51:29.074Z,0.40
2024-02-28T07:53:57.611Z,0.40
2024-02-28T07:56:25.817Z,0.30
2024-02-28T07:58:54.090Z,0.30
2024-02-28T08:01:23.546Z,0.40
2024-02-28T08:03:52.213Z,0.30
2024-02-28T08:06:20.494Z,0.40
2024-02-28T08:08:50.230Z,0.30
2024-02-28T08:11:20.081Z,0.30
2024-02-28T08:13:48.476Z,0.30
2024-02-28T08:16:16.913Z,0.40
2024-02-28T08:18:45.570Z,0.37
2024-02-28T08:21:14.113Z,0.30
2024-02-28T08:23:42.256Z,0.30
2024-02-28T08:26:12.657Z,0.30
2024-02-28T08:28:40.969Z,0.30
2024-02-28T08:31:09.315Z,0.23
2024-02-28T08:33:37.834Z,0.30
2024-02-28T08:36:06.930Z,0.30
2024-02-28T08:38:35.875Z,0.30
2024-02-28T08:41:04.309Z,0.30
2024-02-28T08:43:34.084Z,0.30
2024-02-28T08:46:02.437Z,0.30
2024-02-28T08:48:30.959Z,0.40
2024-02-28T08:50:59.323Z,0.20
2024-02-28T08:53:28.090Z,0.30
2024-02-28T08:55:56.330Z,0.30
2024-02-28T08:58:24.621Z,0.30
2024-02-28T09:00:55.105Z,0.30
2024-02-28T09:03:23.749Z,0.30
2024-02-28T09:05:52.325Z,0.20
2024-02-28T09:08:20.586Z,0.20
2024-02-28T09:10:48.862Z,0.20
2024-02-28T09:13:19.065Z,0.30
2024-02-28T09:15:47.486Z,0.20
2024-02-28T09:18:17.320Z,0.30
2024-02-28T09:20:45.619Z,0.20
2024-02-28T09:23:15.510Z,0.20
2024-02-28T09:25:44.004Z,0.20
2024-02-28T09:28:14.582Z,0.20
2024-02-28T09:30:48.391Z,0.20
2024-02-28T09:33:22.631Z,0.20
2024-02-28T09:35:51.067Z,0.20
2024-02-28T09:38:19.369Z,0.20
2024-02-28T09:40:49.029Z,0.20
2024-02-28T09:43:25.449Z,0.20
2024-02-28T09:45:55.212Z,0.20
2024-02-28T09:48:25.939Z,0.20
2024-02-28T09:50:54.566Z,0.20
2024-02-28T09:53:22.892Z,0.20
2024-02-28T09:55:52.646Z,0.20
2024-02-28T09:58:22.285Z,0.20
2024-02-28T10:00:51.426Z,0.20
2024-02-28T10:03:20.842Z,0.20
2024-02-28T10:05:50.887Z,0.20
2024-02-28T10:08:19.832Z,0.20
2024-02-28T10:10:49.513Z,0.20
2024-02-28T10:13:18.828Z,0.20
2024-02-28T10:15:47.445Z,0.20
2024-02-28T10:18:15.872Z,0.20
2024-02-28T10:20:44.476Z,0.20
2024-02-28T10:23:14.024Z,0.20
2024-02-28T10:25:55.746Z,0.20
2024-02-28T10:28:26.254Z,0.20
2024-02-28T10:30:56.481Z,0.20
2024-02-28T10:33:30.044Z,0.20
2024-02-28T10:35:58.737Z,0.20
2024-02-28T10:38:29.205Z,0.20
2024-02-28T10:40:58.849Z,0.20
2024-02-28T10:43:29.937Z,0.20
2024-02-28T10:46:24.704Z,0.10
2024-02-28T10:48:50.731Z,0.20
2024-02-28T10:51:26.174Z,0.10
2024-02-28T10:54:04.981Z,0.20
2024-02-28T10:56:33.483Z,0.20
2024-02-28T10:59:02.493Z,0.20
2024-02-28T11:01:30.893Z,0.20
2024-02-28T11:03:59.487Z,0.10
2024-02-28T11:06:28.869Z,0.20
2024-02-28T11:09:01.706Z,0.20
2024-02-28T11:11:33.640Z,0.20
2024-02-28T11:14:02.391Z,0.20
2024-02-28T11:16:32.127Z,0.10
2024-02-28T11:19:01.895Z,0.10
2024-02-28T11:21:31.138Z,0.10
2024-02-28T11:24:04.795Z,0.20
2024-02-28T11:26:33.333Z,0.20
2024-02-28T11:29:01.622Z,0.10
2024-02-28T11:31:29.908Z,0.20
2024-02-28T11:33:58.154Z,0.20
2024-02-28T11:36:26.961Z,0.20
2024-02-28T11:38:59.217Z,0.20
2024-02-28T11:41:29.825Z,0.20
2024-02-28T11:43:58.295Z,0.20
2024-02-28T11:46:26.791Z,0.10
2024-02-28T11:48:56.476Z,0.20
2024-02-28T11:51:25.230Z,0.10
2024-02-28T11:53:53.427Z,0.20
2024-02-28T11:56:22.689Z,0.20
2024-02-28T11:58:56.442Z,0.10
2024-02-28T12:01:37.442Z,0.20
2024-02-28T12:04:07.335Z,0.20
2024-02-28T12:06:37.500Z,0.10
2024-02-28T12:09:09.916Z,0.20
2024-02-28T12:11:39.131Z,0.10
2024-02-28T12:14:11.011Z,0.10
2024-02-28T12:16:39.834Z,0.20
2024-02-28T12:19:10.908Z,0.20
2024-02-28T12:21:39.906Z,0.10
2024-02-28T12:24:11.214Z,0.20
2024-02-28T12:26:40.443Z,0.20
2024-02-28T12:29:11.873Z,0.20
2024-02-28T12:31:40.815Z,0.20
2024-02-28T12:34:09.068Z,0.15
2024-02-28T12:36:38.567Z,0.20
2024-02-28T12:39:07.249Z,0.20
2024-02-28T12:41:35.811Z,0.20
2024-02-28T12:44:04.517Z,0.10
2024-02-28T12:46:35.061Z,0.13
2024-02-28T12:49:03.975Z,0.20
2024-02-28T12:51:40.115Z,0.20
2024-02-28T12:54:08.998Z,0.20
2024-02-28T12:56:37.847Z,0.10
2024-02-28T12:59:07.030Z,0.10
2024-02-28T13:01:37.095Z,0.20
2024-02-28T13:04:05.862Z,0.20
2024-02-28T13:06:34.506Z,0.20
2024-02-28T13:09:02.957Z,0.20
2024-02-28T13:11:31.225Z,0.20
2024-02-28T13:14:00.559Z,0.20
2024-02-28T13:16:28.835Z,0.10
2024-02-28T13:18:58.624Z,0.10
2024-02-28T13:21:27.009Z,0.20
2024-02-28T13:23:55.270Z,0.20
2024-02-28T13:26:23.530Z,0.10
2024-02-28T13:28:54.149Z,0.10
2024-02-28T13:31:23.030Z,0.10
2024-02-28T13:33:51.595Z,0.20
2024-02-28T13:36:21.526Z,0.20
2024-02-28T13:38:49.874Z,0.20
2024-02-28T13:41:18.438Z,0.10
2024-02-28T13:43:47.805Z,0.10
2024-02-28T13:46:16.493Z,0.20
2024-02-28T13:48:45.070Z,0.20
2024-02-28T13:51:13.701Z,0.20
2024-02-28T13:53:43.329Z,0.10
2024-02-28T13:56:11.489Z,0.10
2024-02-28T13:58:45.776Z,0.20
2024-02-28T14:01:20.449Z,0.20
2024-02-28T14:03:49.033Z,0.10
2024-02-28T14:06:17.355Z,0.10
2024-02-28T14:08:47.404Z,0.20
2024-02-28T14:11:18.068Z,0.20
2024-02-28T14:13:46.590Z,0.20
2024-02-28T14:16:14.993Z,0.10
2024-02-28T14:18:43.368Z,0.20
2024-02-28T14:21:11.669Z,0.20
2024-02-28T14:23:39.835Z,0.10
2024-02-28T14:26:09.560Z,0.20
2024-02-28T14:28:37.967Z,0.20
2024-02-28T14:31:07.241Z,0.20
2024-02-28T14:33:35.785Z,0.10
2024-02-28T14:36:06.449Z,0.20
2024-02-28T14:38:34.683Z,0.20
2024-02-28T14:41:04.343Z,0.20
2024-02-28T14:43:34.140Z,0.20
2024-02-28T14:46:02.792Z,0.17
2024-02-28T14:48:32.085Z,0.20
2024-02-28T14:51:00.495Z,0.15
2024-02-28T14:53:28.844Z,0.10
2024-02-28T14:55:57.337Z,0.20
2024-02-28T14:58:25.611Z,0.13
2024-02-28T15:00:59.471Z,0.10
2024-02-28T15:03:28.093Z,0.20
2024-02-28T15:05:56.356Z,0.17
2024-02-28T15:08:25.015Z,0.10
2024-02-28T15:10:53.934Z,0.10
2024-02-28T15:13:24.635Z,0.20
2024-02-28T15:15:53.027Z,0.10
2024-02-28T15:18:23.371Z,0.20
2024-02-28T15:20:55.211Z,0.10
2024-02-28T15:23:24.043Z,0.17
2024-02-28T15:25:55.189Z,0.20
2024-02-28T15:28:24.646Z,0.20
2024-02-28T15:30:52.243Z,0.20
2024-02-28T15:33:22.041Z,0.10
2024-02-28T15:35:50.490Z,0.20
2024-02-28T15:38:18.955Z,0.20
2024-02-28T15:40:47.436Z,0.20
2024-02-28T15:43:15.988Z,0.10
2024-02-28T15:45:44.732Z,0.13
2024-02-28T15:48:13.065Z,0.20
2024-02-28T15:50:42.710Z,0.20
2024-02-28T15:53:11.646Z,0.20
2024-02-28T15:55:40.476Z,0.10
2024-02-28T15:58:08.826Z,0.20
2024-02-28T16:00:38.505Z,0.13
2024-02-28T16:03:07.878Z,0.17
2024-02-28T16:05:36.065Z,0.20
2024-02-28T16:08:06.338Z,0.10
2024-02-28T16:10:34.653Z,0.10
2024-02-28T16:13:04.822Z,0.20
2024-02-28T16:15:34.616Z,0.20
2024-02-28T16:18:03.181Z,0.20
2024-02-28T16:20:31.434Z,0.20
2024-02-28T16:22:59.732Z,0.10
2024-02-28T16:25:30.581Z,0.20
2024-02-28T16:27:58.823Z,0.20
2024-02-28T16:30:27.247Z,0.20
2024-02-28T16:32:55.518Z,0.20
2024-02-28T16:35:23.815Z,0.20
2024-02-28T16:37:52.336Z,0.20
2024-02-28T16:40:20.946Z,0.20
2024-02-28T16:42:50.605Z,0.20
2024-02-28T16:45:18.944Z,0.20
2024-02-28T16:47:47.254Z,0.20
2024-02-28T16:50:15.815Z,0.20
2024-02-28T16:52:44.136Z,0.10
2024-02-28T16:55:12.514Z,0.20
2024-02-28T16:57:42.315Z,0.10
2024-02-28T17:00:14.864Z,0.20
2024-02-28T17:02:43.215Z,0.20
2024-02-28T17:05:11.466Z,0.20
2024-02-28T17:07:39.744Z,0.13
2024-02-28T17:10:10.309Z,0.20
2024-02-28T17:12:38.589Z,0.20
2024-02-28T17:15:07.745Z,0.20
2024-02-28T17:17:37.418Z,0.20
2024-02-28T17:20:08.435Z,0.20
2024-02-28T17:22:36.992Z,0.10
2024-02-28T17:25:06.063Z,0.10
2024-02-28T17:27:34.457Z,0.20
2024-02-28T17:30:05.176Z,0.15
2024-02-28T17:32:33.442Z,0.10
2024-02-28T17:35:04.925Z,0.20
2024-02-28T17:37:34.933Z,0.20
2024-02-28T17:40:03.750Z,0.20
2024-02-28T17:42:32.254Z,0.20
2024-02-28T17:45:00.539Z,0.20
2024-02-28T17:47:30.313Z,0.20
2024-02-28T17:49:58.694Z,0.20
2024-02-28T17:52:28.534Z,0.10
2024-02-28T17:54:56.889Z,0.10
2024-02-28T17:57:25.397Z,0.10
2024-02-28T17:59:53.851Z,0.20
2024-02-28T18:02:22.194Z,0.20
2024-02-28T18:04:50.559Z,0.20
2024-02-28T18:07:18.876Z,0.20
2024-02-28T18:09:48.633Z,0.17
2024-02-28T18:12:16.833Z,0.20
2024-02-28T18:14:45.171Z,0.20
2024-02-28T18:17:14.170Z,0.20
2024-02-28T18:19:42.481Z,0.20
2024-02-28T18:22:10.934Z,0.20
2024-02-28T18:24:39.992Z,0.20
2024-02-28T18:27:11.643Z,0.20
2024-02-28T18:29:40.145Z,0.20
2024-02-28T18:32:08.457Z,0.20
2024-02-28T18:34:36.697Z,0.20
2024-02-28T18:37:05.107Z,0.20
2024-02-28T18:39:33.434Z,0.20
2024-02-28T18:42:01.644Z,0.13
2024-02-28T18:44:31.328Z,0.20
2024-02-28T18:46:59.657Z,0.20
2024-02-28T18:49:28.033Z,0.20
2024-02-28T18:51:56.217Z,0.20
2024-02-28T18:54:25.055Z,0.20
2024-02-28T18:56:55.306Z,0.20
2024-02-28T18:59:23.811Z,0.20
2024-02-28T19:01:53.601Z,0.20
2024-02-28T19:04:22.169Z,0.20
2024-02-28T19:06:51.630Z,0.20
2024-02-28T19:09:20.342Z,0.20
2024-02-28T19:11:49.469Z,0.20
2024-02-28T19:14:17.905Z,0.20
2024-02-28T19:16:46.114Z,0.20
2024-02-28T19:19:19.406Z,0.20
2024-02-28T19:21:48.992Z,0.20
2024-02-28T19:24:17.615Z,0.20
2024-02-28T19:26:46.025Z,0.20
2024-02-28T19:29:14.350Z,0.20
2024-02-28T19:31:43.616Z,0.20
2024-02-28T19:34:12.070Z,0.20
2024-02-28T19:36:41.757Z,0.20
2024-02-28T19:39:10.086Z,0.20
2024-02-28T19:41:39.732Z,0.20
2024-02-28T19:44:08.373Z,0.20
2024-02-28T19:46:36.760Z,0.20
2024-02-28T19:49:05.238Z,0.20
2024-02-28T19:51:33.753Z,0.20
2024-02-28T19:54:04.650Z,0.20
2024-02-28T19:56:32.882Z,0.20
2024-02-28T19:59:01.216Z,0.20
2024-02-28T20:01:29.894Z,0.20
2024-02-28T20:03:58.455Z,0.20
2024-02-28T20:06:26.892Z,0.20
2024-02-28T20:08:55.656Z,0.20
2024-02-28T20:11:25.247Z,0.20
2024-02-28T20:13:53.918Z,0.20
2024-02-28T20:16:22.148Z,0.20
2024-02-28T20:18:50.827Z,0.20
2024-02-28T20:21:24.909Z,0.20
2024-02-28T20:23:56.973Z,0.20
2024-02-28T20:26:27.048Z,0.20
2024-02-28T20:28:55.230Z,0.20
2024-02-28T20:31:24.113Z,0.20
2024-02-28T20:33:52.476Z,0.20
2024-02-28T20:36:21.212Z,0.20
2024-02-28T20:38:49.686Z,0.20
2024-02-28T20:41:19.499Z,0.20
2024-02-28T20:43:51.100Z,0.20
2024-02-28T20:46:21.671Z,0.20
2024-02-28T20:48:50.211Z,0.20
2024-02-28T20:51:19.714Z,0.20
2024-02-28T20:53:54.353Z,0.20
2024-02-28T20:56:23.782Z,0.20
2024-02-28T20:58:54.684Z,0.20
2024-02-28T21:01:25.408Z,0.20
2024-02-28T21:03:55.742Z,0.20
2024-02-28T21:06:24.359Z,0.20
2024-02-28T21:08:52.637Z,0.20
2024-02-28T21:11:20.830Z,0.20
2024-02-28T21:13:50.757Z,0.20
2024-02-28T21:16:20.446Z,0.20
2024-02-28T21:18:51.689Z,0.20
2024-02-28T21:21:20.380Z,0.20
2024-02-28T21:23:48.768Z,0.20
2024-02-28T21:26:17.120Z,0.20
2024-02-28T21:28:45.424Z,0.20
2024-02-28T21:31:13.689Z,0.20
2024-02-28T21:33:43.348Z,0.20
2024-02-28T21:36:11.686Z,0.20
2024-02-28T21:38:39.927Z,0.20
2024-02-28T21:41:08.087Z,0.20
2024-02-28T21:43:36.516Z,0.20
2024-02-28T21:46:05.176Z,0.23
2024-02-28T21:48:33.366Z,0.20
2024-02-28T21:51:03.248Z,0.20
2024-02-28T21:53:31.422Z,0.20
2024-02-28T21:55:59.665Z,0.20
2024-02-28T21:58:27.999Z,0.20
2024-02-28T22:00:56.409Z,0.20
2024-02-28T22:03:24.664Z,0.20
2024-02-28T22:05:53.000Z,0.20
2024-02-28T22:08:22.748Z,0.20
2024-02-28T22:10:51.039Z,0.20
2024-02-28T22:13:19.288Z,0.30
2024-02-28T22:15:47.550Z,0.20
2024-02-28T22:18:15.841Z,0.20
2024-02-28T22:20:44.162Z,0.20
2024-02-28T22:23:12.399Z,0.20
2024-02-28T22:25:42.207Z,0.20
2024-02-28T22:28:10.600Z,0.20
2024-02-28T22:30:38.882Z,0.20
2024-02-28T22:33:07.323Z,0.20
2024-02-28T22:35:35.621Z,0.20
2024-02-28T22:38:04.377Z,0.23
2024-02-28T22:40:33.155Z,0.20
2024-02-28T22:43:03.054Z,0.30
2024-02-28T22:45:31.571Z,0.20
2024-02-28T22:47:59.890Z,0.20
2024-02-28T22:50:28.127Z,0.20
2024-02-28T22:52:56.391Z,0.30
2024-02-28T22:55:24.816Z,0.20
2024-02-28T22:57:53.149Z,0.20
2024-02-28T23:00:33.744Z,0.20
2024-02-28T23:03:05.074Z,0.20
2024-02-28T23:05:33.771Z,0.20
2024-02-28T23:08:02.059Z,0.20
2024-02-28T23:10:30.524Z,0.20
2024-02-28T23:12:59.045Z,0.20
2024-02-28T23:15:28.840Z,0.20
2024-02-28T23:17:57.813Z,0.20
2024-02-28T23:20:28.556Z,0.20
2024-02-28T23:22:57.135Z,0.20
2024-02-28T23:25:25.536Z,0.20
2024-02-28T23:27:55.392Z,0.27
2024-02-28T23:30:24.135Z,0.30
2024-02-28T23:32:53.709Z,0.20
2024-02-28T23:35:22.189Z,0.20
2024-02-28T23:37:50.574Z,0.27
2024-02-28T23:40:18.843Z,0.23
2024-02-28T23:42:47.170Z,0.20
2024-02-28T23:45:15.586Z,0.20
2024-02-28T23:47:44.319Z,0.20
2024-02-28T23:50:14.024Z,0.20
2024-02-28T23:52:42.278Z,0.30
2024-02-28T23:55:10.835Z,0.20
2024-02-28T23:57:39.350Z,0.20
